createdAt,value
2023-10-07T00:02:18.169Z,30.30
2023-10-07T00:04:46.740Z,30.20
2023-10-07T00:07:14.737Z,30.80
2023-10-07T00:09:46.120Z,31.10
2023-10-07T00:12:18.303Z,30.90
2023-10-07T00:14:45.664Z,30.60
2023-10-07T00:17:22.875Z,29.30
2023-10-07T00:19:50.181Z,30.90
2023-10-07T00:22:21.135Z,30.90
2023-10-07T00:24:50.601Z,32.40
2023-10-07T00:27:28.334Z,28.30
2023-10-07T00:29:56.151Z,31.60
2023-10-07T00:32:33.399Z,28.50
2023-10-07T00:35:07.715Z,29.20
2023-10-07T00:37:39.483Z,30.40
2023-10-07T00:40:32.395Z,29.00
2023-10-07T00:42:59.820Z,31.00
2023-10-07T00:45:27.199Z,29.20
2023-10-07T00:47:57.683Z,28.40
2023-10-07T00:50:24.857Z,28.30
2023-10-07T00:52:55.061Z,31.10
2023-10-07T00:55:35.901Z,31.00
2023-10-07T00:58:14.679Z,28.90
2023-10-07T01:00:49.821Z,29.50
2023-10-07T01:03:27.923Z,29.40
2023-10-07T01:06:02.753Z,27.10
2023-10-07T01:08:51.881Z,25.80
2023-10-07T01:11:20.119Z,25.50
2023-10-07T01:13:58.479Z,25.40
2023-10-07T01:16:42.965Z,25.70
2023-10-07T01:19:14.996Z,23.90
2023-10-07T01:21:53.164Z,26.60
2023-10-07T01:24:34.744Z,23.70
2023-10-07T01:27:22.913Z,24.80
2023-10-07T01:29:51.685Z,24.90
2023-10-07T01:32:19.413Z,25.70
2023-10-07T01:34:49.620Z,25.20
2023-10-07T01:37:22.323Z,24.40
2023-10-07T01:39:55.813Z,24.20
2023-10-07T01:42:39.260Z,23.00
2023-10-07T01:45:22.276Z,23.90
2023-10-07T01:47:50.804Z,24.30
2023-10-07T01:50:20.286Z,24.40
2023-10-07T01:52:52.766Z,22.70
2023-10-07T01:55:21.133Z,23.10
2023-10-07T01:57:52.878Z,25.10
2023-10-07T02:00:41.775Z,25.30
2023-10-07T02:03:14.753Z,25.10
2023-10-07T02:05:43.156Z,26.10
2023-10-07T02:08:15.876Z,23.50
2023-10-07T02:10:42.966Z,23.80
2023-10-07T02:13:19.579Z,24.10
2023-10-07T02:15:53.670Z,22.80
2023-10-07T02:18:21.144Z,23.00
2023-10-07T02:21:09.036Z,24.10
2023-10-07T02:23:42.408Z,24.20
2023-10-07T02:26:33.962Z,24.10
2023-10-07T02:29:08.836Z,23.00
2023-10-07T02:31:44.850Z,21.40
2023-10-07T02:34:29.417Z,23.90
2023-10-07T02:37:14.256Z,22.40
2023-10-07T02:39:52.712Z,21.20
2023-10-07T02:42:23.584Z,22.20
2023-10-07T02:45:02.773Z,22.70
2023-10-07T02:47:33.998Z,22.50
2023-10-07T02:50:04.347Z,24.70
2023-10-07T02:52:40.186Z,22.20
2023-10-07T02:55:20.530Z,21.00
2023-10-07T02:57:49.280Z,22.00
2023-10-07T03:00:35.435Z,22.60
2023-10-07T03:03:32.747Z,21.90
2023-10-07T03:06:00.620Z,20.60
2023-10-07T03:08:47.648Z,21.30
2023-10-07T03:11:41.148Z,21.40
2023-10-07T03:14:14.432Z,20.70
2023-10-07T03:16:47.829Z,19.40
2023-10-07T03:19:22.124Z,20.90
2023-10-07T03:21:55.389Z,20.10
2023-10-07T03:24:42.069Z,20.80
2023-10-07T03:27:13.024Z,21.90
2023-10-07T03:29:43.043Z,20.00
2023-10-07T03:32:13.898Z,19.30
2023-10-07T03:34:47.278Z,20.50
2023-10-07T03:37:14.813Z,19.70
2023-10-07T03:40:00.266Z,20.60
2023-10-07T03:42:27.518Z,20.20
2023-10-07T03:44:55.788Z,18.00
2023-10-07T03:47:22.958Z,20.60
2023-10-07T03:49:55.055Z,19.00
2023-10-07T03:52:22.532Z,19.10
2023-10-07T03:54:50.032Z,21.30
2023-10-07T03:57:17.299Z,19.70
2023-10-07T03:59:47.104Z,19.50
2023-10-07T04:02:30.476Z,19.20
2023-10-07T04:05:16.371Z,18.40
2023-10-07T04:07:46.305Z,18.90
2023-10-07T04:10:32.528Z,18.10
2023-10-07T04:13:01.066Z,18.50
2023-10-07T04:15:50.955Z,20.10
2023-10-07T04:18:19.548Z,17.30
2023-10-07T04:20:58.556Z,19.50
2023-10-07T04:23:28.373Z,18.80
2023-10-07T04:26:19.029Z,18.60
2023-10-07T04:28:49.992Z,19.70
2023-10-07T04:31:17.824Z,19.10
2023-10-07T04:33:55.083Z,17.90
2023-10-07T04:36:36.022Z,17.20
2023-10-07T04:39:17.860Z,17.40
2023-10-07T04:41:45.048Z,17.50
2023-10-07T04:44:32.435Z,17.90
2023-10-07T04:46:59.811Z,17.10
2023-10-07T04:49:38.359Z,18.80
2023-10-07T04:52:08.819Z,15.00
2023-10-07T04:54:38.748Z,17.70
2023-10-07T04:57:11.841Z,17.50
2023-10-07T04:59:47.331Z,16.20
2023-10-07T05:02:17.087Z,16.80
2023-10-07T05:04:51.699Z,17.80
2023-10-07T05:07:25.852Z,18.00
2023-10-07T05:09:56.526Z,17.10
2023-10-07T05:12:23.591Z,17.80
2023-10-07T05:14:51.246Z,16.70
2023-10-07T05:17:18.705Z,16.60
2023-10-07T05:19:47.875Z,15.40
2023-10-07T05:22:19.782Z,17.70
2023-10-07T05:24:48.535Z,15.50
2023-10-07T05:27:17.164Z,16.20
2023-10-07T05:29:48.159Z,15.20
2023-10-07T05:32:15.390Z,15.80
2023-10-07T05:34:43.325Z,16.20
2023-10-07T05:37:13.726Z,16.80
2023-10-07T05:39:44.470Z,15.30
2023-10-07T05:42:13.504Z,16.10
2023-10-07T05:44:41.579Z,16.40
2023-10-07T05:47:11.050Z,15.90
2023-10-07T05:49:39.519Z,13.80
2023-10-07T05:52:06.741Z,15.50
2023-10-07T05:54:34.929Z,14.50
2023-10-07T05:57:08.648Z,14.70
2023-10-07T05:59:36.203Z,16.30
2023-10-07T06:02:08.375Z,16.90
2023-10-07T06:04:36.730Z,18.60
2023-10-07T06:07:07.716Z,16.30
2023-10-07T06:09:38.419Z,16.20
2023-10-07T06:12:09.009Z,16.10
2023-10-07T06:14:39.786Z,18.80
2023-10-07T06:17:07.867Z,16.90
2023-10-07T06:19:36.670Z,16.30
2023-10-07T06:22:13.388Z,17.00
2023-10-07T06:24:42.184Z,16.30
2023-10-07T06:27:13.355Z,16.40
2023-10-07T06:29:45.710Z,15.30
2023-10-07T06:32:27.245Z,14.90
2023-10-07T06:34:56.637Z,15.00
2023-10-07T06:37:29.915Z,16.80
2023-10-07T06:40:02.137Z,14.40
2023-10-07T06:42:29.710Z,16.00
2023-10-07T06:44:57.407Z,15.70
2023-10-07T06:47:25.389Z,13.90
2023-10-07T06:49:53.792Z,17.90
2023-10-07T06:52:23.778Z,15.50
2023-10-07T06:55:05.511Z,13.40
2023-10-07T06:57:36.006Z,14.10
2023-10-07T07:00:10.824Z,14.30
2023-10-07T07:02:37.978Z,17.30
2023-10-07T07:05:14.668Z,14.90
2023-10-07T07:07:43.529Z,14.40
2023-10-07T07:10:17.776Z,14.80
2023-10-07T07:12:46.068Z,16.40
2023-10-07T07:15:27.526Z,15.00
2023-10-07T07:18:09.737Z,14.50
2023-10-07T07:21:12.057Z,14.20
2023-10-07T07:23:41.895Z,12.80
2023-10-07T07:26:13.444Z,13.20
2023-10-07T07:28:45.287Z,16.00
2023-10-07T07:31:43.446Z,15.00
2023-10-07T07:34:24.776Z,13.70
2023-10-07T07:37:04.772Z,13.50
2023-10-07T07:39:32.696Z,15.80
2023-10-07T07:42:24.494Z,15.40
2023-10-07T07:44:57.927Z,15.00
2023-10-07T07:47:32.422Z,16.40
2023-10-07T07:50:08.715Z,14.70
2023-10-07T07:52:35.809Z,14.10
2023-10-07T07:55:03.032Z,16.50
2023-10-07T07:57:30.870Z,14.20
2023-10-07T07:59:59.763Z,13.30
2023-10-07T08:02:28.248Z,14.10
2023-10-07T08:05:05.043Z,14.80
2023-10-07T08:07:32.474Z,15.70
2023-10-07T08:10:00.183Z,15.00
2023-10-07T08:12:32.902Z,16.20
2023-10-07T08:15:01.013Z,15.90
2023-10-07T08:17:29.113Z,12.70
2023-10-07T08:19:57.600Z,14.90
2023-10-07T08:22:28.958Z,13.30
2023-10-07T08:25:02.445Z,14.40
2023-10-07T08:27:48.585Z,13.70
2023-10-07T08:30:30.094Z,15.20
2023-10-07T08:32:57.261Z,13.30
2023-10-07T08:35:27.560Z,13.20
2023-10-07T08:37:55.148Z,13.50
2023-10-07T08:40:41.647Z,16.40
2023-10-07T08:43:19.578Z,12.80
2023-10-07T08:45:49.297Z,12.70
2023-10-07T08:48:16.993Z,12.40
2023-10-07T08:50:57.271Z,14.70
2023-10-07T08:53:26.767Z,15.10
2023-10-07T08:55:56.505Z,13.20
2023-10-07T08:58:30.481Z,12.00
2023-10-07T09:00:58.552Z,14.10
2023-10-07T09:03:31.005Z,13.50
2023-10-07T09:06:04.666Z,13.30
2023-10-07T09:08:37.135Z,14.20
2023-10-07T09:11:08.712Z,16.80
2023-10-07T09:13:39.919Z,13.40
2023-10-07T09:16:11.879Z,12.70
2023-10-07T09:18:42.912Z,11.10
2023-10-07T09:21:21.833Z,12.10
2023-10-07T09:23:52.869Z,15.80
2023-10-07T09:26:35.523Z,12.50
2023-10-07T09:29:30.191Z,13.10
2023-10-07T09:32:06.105Z,12.30
2023-10-07T09:34:48.940Z,15.60
2023-10-07T09:37:25.162Z,11.80
2023-10-07T09:40:15.853Z,13.40
2023-10-07T09:42:58.453Z,12.70
2023-10-07T09:45:37.141Z,12.90
2023-10-07T09:48:07.093Z,12.10
2023-10-07T09:50:35.950Z,14.40
2023-10-07T09:53:20.083Z,12.00
2023-10-07T09:55:49.656Z,14.20
2023-10-07T09:58:45.614Z,16.20
2023-10-07T10:01:48.068Z,14.70
2023-10-07T10:04:38.121Z,12.10
2023-10-07T10:07:29.944Z,15.00
2023-10-07T10:10:18.832Z,14.00
2023-10-07T10:12:53.256Z,12.90
2023-10-07T10:15:22.949Z,10.50
2023-10-07T10:17:54.967Z,14.70
2023-10-07T10:20:29.039Z,11.80
2023-10-07T10:23:09.524Z,14.50
2023-10-07T10:25:38.374Z,13.80
2023-10-07T10:28:09.076Z,12.10
2023-10-07T10:30:55.258Z,13.00
2023-10-07T10:33:25.644Z,13.70
2023-10-07T10:35:54.082Z,12.40
2023-10-07T10:38:21.234Z,14.20
2023-10-07T10:40:48.710Z,11.10
2023-10-07T10:43:25.871Z,11.70
2023-10-07T10:46:10.933Z,10.20
2023-10-07T10:48:41.996Z,13.40
2023-10-07T10:51:11.763Z,11.70
2023-10-07T10:53:42.710Z,13.10
2023-10-07T10:56:10.944Z,12.30
2023-10-07T10:58:38.364Z,11.90
2023-10-07T11:01:08.424Z,13.40
2023-10-07T11:03:38.929Z,12.20
2023-10-07T11:06:11.325Z,12.30
2023-10-07T11:08:40.179Z,16.40
2023-10-07T11:11:12.434Z,11.00
2023-10-07T11:13:45.542Z,11.00
2023-10-07T11:16:13.778Z,11.10
2023-10-07T11:18:47.331Z,13.90
2023-10-07T11:21:23.058Z,10.30
2023-10-07T11:24:02.274Z,11.40
2023-10-07T11:26:34.227Z,14.60
2023-10-07T11:29:14.876Z,11.00
2023-10-07T11:31:45.526Z,12.70
2023-10-07T11:34:14.577Z,13.90
2023-10-07T11:36:49.758Z,15.20
2023-10-07T11:39:18.363Z,15.00
2023-10-07T11:41:45.531Z,15.90
2023-10-07T11:44:18.264Z,13.80
2023-10-07T11:46:47.598Z,16.70
2023-10-07T11:49:16.902Z,18.30
2023-10-07T11:51:46.704Z,14.00
2023-10-07T11:54:15.949Z,16.20
2023-10-07T11:56:46.335Z,15.80
2023-10-07T11:59:14.215Z,12.40
2023-10-07T12:01:41.391Z,14.20
2023-10-07T12:04:10.180Z,16.10
2023-10-07T12:06:40.291Z,15.80
2023-10-07T12:09:11.835Z,16.00
2023-10-07T12:11:40.671Z,16.40
2023-10-07T12:14:17.332Z,13.80
2023-10-07T12:16:46.072Z,14.70
2023-10-07T12:19:20.175Z,14.80
2023-10-07T12:21:50.595Z,16.00
2023-10-07T12:24:23.284Z,12.50
2023-10-07T12:26:56.519Z,16.80
2023-10-07T12:29:28.610Z,14.20
2023-10-07T12:31:58.283Z,13.30
2023-10-07T12:34:29.318Z,14.40
2023-10-07T12:36:57.244Z,11.40
2023-10-07T12:39:34.191Z,11.80
2023-10-07T12:42:10.612Z,11.80
2023-10-07T12:44:41.717Z,13.40
2023-10-07T12:47:11.647Z,14.90
2023-10-07T12:49:42.793Z,11.80
2023-10-07T12:52:16.808Z,12.30
2023-10-07T12:54:47.889Z,13.20
2023-10-07T12:57:19.504Z,12.00
2023-10-07T12:59:55.942Z,14.00
2023-10-07T13:02:24.950Z,17.20
2023-10-07T13:04:56.979Z,11.60
2023-10-07T13:07:24.280Z,12.30
2023-10-07T13:09:51.462Z,14.80
2023-10-07T13:12:20.200Z,16.20
2023-10-07T13:14:48.017Z,15.10
2023-10-07T13:17:16.554Z,13.60
2023-10-07T13:19:49.661Z,14.50
2023-10-07T13:22:20.651Z,12.80
2023-10-07T13:24:48.507Z,14.10
2023-10-07T13:27:17.740Z,17.30
2023-10-07T13:29:45.263Z,15.30
2023-10-07T13:32:17.782Z,18.50
2023-10-07T13:34:45.617Z,16.00
2023-10-07T13:37:13.699Z,13.40
2023-10-07T13:39:42.315Z,14.00
2023-10-07T13:42:12.531Z,15.50
2023-10-07T13:44:40.293Z,15.60
2023-10-07T13:47:09.378Z,14.90
2023-10-07T13:49:39.589Z,13.60
2023-10-07T13:52:11.736Z,16.10
2023-10-07T13:54:49.127Z,13.90
2023-10-07T13:57:24.236Z,15.20
2023-10-07T13:59:55.411Z,17.60
2023-10-07T14:02:23.336Z,16.90
2023-10-07T14:04:55.053Z,13.20
2023-10-07T14:07:22.318Z,12.90
2023-10-07T14:09:51.166Z,12.90
2023-10-07T14:12:20.760Z,12.00
2023-10-07T14:14:54.011Z,13.50
2023-10-07T14:17:22.335Z,12.30
2023-10-07T14:19:50.266Z,10.90
2023-10-07T14:22:19.282Z,12.30
2023-10-07T14:24:47.115Z,14.00
2023-10-07T14:27:15.344Z,11.20
2023-10-07T14:29:45.779Z,13.10
2023-10-07T14:32:13.068Z,11.50
2023-10-07T14:34:40.487Z,11.40
2023-10-07T14:37:08.952Z,12.10
2023-10-07T14:39:42.660Z,11.00
2023-10-07T14:42:16.119Z,10.70
2023-10-07T14:44:44.947Z,14.10
2023-10-07T14:47:16.350Z,10.80
2023-10-07T14:49:50.619Z,12.10
2023-10-07T14:52:17.863Z,12.50
2023-10-07T14:54:45.830Z,11.30
2023-10-07T14:57:15.112Z,17.20
2023-10-07T14:59:46.068Z,11.80
2023-10-07T15:02:15.240Z,11.20
2023-10-07T15:04:44.032Z,12.30
2023-10-07T15:07:11.938Z,11.80
2023-10-07T15:09:39.285Z,10.40
2023-10-07T15:12:09.564Z,14.30
2023-10-07T15:14:36.848Z,12.70
2023-10-07T15:17:06.091Z,11.40
2023-10-07T15:19:33.817Z,10.60
2023-10-07T15:22:03.933Z,11.00
2023-10-07T15:24:31.399Z,12.40
2023-10-07T15:26:59.012Z,12.30
2023-10-07T15:29:30.139Z,10.20
2023-10-07T15:31:58.505Z,10.80
2023-10-07T15:34:26.611Z,14.70
2023-10-07T15:36:58.106Z,11.30
2023-10-07T15:39:28.228Z,10.90
2023-10-07T15:41:58.552Z,10.90
2023-10-07T15:44:26.979Z,11.00
2023-10-07T15:46:54.775Z,12.20
2023-10-07T15:49:21.916Z,10.90
2023-10-07T15:51:49.604Z,12.60
2023-10-07T15:54:19.114Z,11.10
2023-10-07T15:56:47.487Z,12.20
2023-10-07T15:59:16.991Z,11.30
2023-10-07T16:01:45.601Z,10.20
2023-10-07T16:04:13.710Z,12.50
2023-10-07T16:06:43.408Z,10.70
2023-10-07T16:09:17.263Z,9.10
2023-10-07T16:11:52.175Z,10.80
2023-10-07T16:14:20.314Z,9.40
2023-10-07T16:16:50.389Z,11.40
2023-10-07T16:19:20.321Z,10.60
2023-10-07T16:21:51.821Z,10.40
2023-10-07T16:24:19.229Z,9.30
2023-10-07T16:26:46.921Z,10.00
2023-10-07T16:29:17.463Z,12.50
2023-10-07T16:31:45.255Z,9.90
2023-10-07T16:34:13.189Z,9.40
2023-10-07T16:36:40.307Z,11.80
2023-10-07T16:39:10.423Z,10.90
2023-10-07T16:41:38.321Z,10.10
2023-10-07T16:44:07.059Z,8.80
2023-10-07T16:46:37.820Z,11.40
2023-10-07T16:49:05.844Z,11.00
2023-10-07T16:51:34.013Z,10.60
2023-10-07T16:54:07.637Z,9.70
2023-10-07T16:56:35.816Z,11.50
2023-10-07T16:59:05.652Z,10.10
2023-10-07T17:01:33.760Z,10.60
2023-10-07T17:04:04.790Z,9.70
2023-10-07T17:06:33.540Z,8.80
2023-10-07T17:09:04.994Z,11.60
2023-10-07T17:11:33.533Z,9.70
2023-10-07T17:14:08.648Z,9.90
2023-10-07T17:16:36.419Z,10.10
2023-10-07T17:19:07.416Z,9.20
2023-10-07T17:21:35.632Z,11.00
2023-10-07T17:24:06.602Z,9.30
2023-10-07T17:26:37.760Z,9.00
2023-10-07T17:29:08.413Z,8.60
2023-10-07T17:31:35.753Z,9.10
2023-10-07T17:34:05.762Z,10.20
2023-10-07T17:36:35.758Z,9.50
2023-10-07T17:39:04.376Z,9.60
2023-10-07T17:41:33.020Z,8.60
2023-10-07T17:44:00.931Z,8.80
2023-10-07T17:46:31.336Z,12.00
2023-10-07T17:49:01.060Z,10.50
2023-10-07T17:51:30.575Z,10.20
2023-10-07T17:54:01.844Z,9.90
2023-10-07T17:56:31.432Z,9.00
2023-10-07T17:58:58.721Z,8.90
2023-10-07T18:01:28.849Z,8.30
2023-10-07T18:03:57.111Z,9.20
2023-10-07T18:06:28.166Z,8.30
2023-10-07T18:08:59.558Z,8.50
2023-10-07T18:11:27.112Z,8.70
2023-10-07T18:13:54.770Z,8.80
2023-10-07T18:16:24.214Z,9.10
2023-10-07T18:18:52.667Z,9.80
2023-10-07T18:21:24.584Z,7.50
2023-10-07T18:23:52.149Z,8.90
2023-10-07T18:26:30.944Z,8.90
2023-10-07T18:29:24.700Z,7.90
2023-10-07T18:31:54.860Z,8.60
2023-10-07T18:34:22.664Z,10.00
2023-10-07T18:36:51.256Z,9.80
2023-10-07T18:39:19.085Z,7.70
2023-10-07T18:41:48.272Z,9.00
2023-10-07T18:44:15.833Z,8.80
2023-10-07T18:46:44.395Z,9.10
2023-10-07T18:49:15.225Z,9.50
2023-10-07T18:51:42.738Z,8.30
2023-10-07T18:54:10.064Z,8.30
2023-10-07T18:56:37.341Z,8.00
2023-10-07T18:59:06.467Z,7.90
2023-10-07T19:01:35.232Z,10.00
2023-10-07T19:04:03.145Z,9.70
2023-10-07T19:06:31.673Z,8.00
2023-10-07T19:08:58.962Z,9.10
2023-10-07T19:11:26.360Z,10.10
2023-10-07T19:13:54.063Z,9.90
2023-10-07T19:16:22.924Z,7.70
2023-10-07T19:18:50.179Z,7.90
2023-10-07T19:21:17.575Z,9.00
2023-10-07T19:23:44.737Z,7.90
2023-10-07T19:26:17.304Z,10.00
2023-10-07T19:28:45.688Z,7.70
2023-10-07T19:31:15.353Z,9.40
2023-10-07T19:33:43.442Z,12.20
2023-10-07T19:36:10.985Z,8.80
2023-10-07T19:38:38.922Z,7.70
2023-10-07T19:41:07.562Z,10.00
2023-10-07T19:43:39.131Z,8.30
2023-10-07T19:46:09.011Z,7.20
2023-10-07T19:48:36.286Z,11.70
2023-10-07T19:51:03.597Z,9.00
2023-10-07T19:53:37.936Z,8.40
2023-10-07T19:56:05.703Z,8.30
2023-10-07T19:58:33.459Z,9.20
2023-10-07T20:01:08.272Z,10.20
2023-10-07T20:03:36.297Z,10.00
2023-10-07T20:06:11.986Z,10.90
2023-10-07T20:08:42.234Z,12.90
2023-10-07T20:11:11.022Z,9.80
2023-10-07T20:13:39.139Z,12.10
2023-10-07T20:16:09.781Z,10.30
2023-10-07T20:18:38.161Z,12.20
2023-10-07T20:21:05.688Z,12.00
2023-10-07T20:23:32.789Z,12.00
2023-10-07T20:26:02.609Z,12.50
2023-10-07T20:28:30.722Z,14.30
2023-10-07T20:31:03.312Z,12.10
2023-10-07T20:33:30.713Z,14.10
2023-10-07T20:35:58.118Z,15.20
2023-10-07T20:38:25.290Z,15.70
2023-10-07T20:41:06.449Z,16.50
2023-10-07T20:43:34.822Z,15.40
2023-10-07T20:46:08.279Z,12.50
2023-10-07T20:48:36.325Z,14.20
2023-10-07T20:51:08.800Z,12.30
2023-10-07T20:53:43.789Z,13.30
2023-10-07T20:56:16.535Z,12.40
2023-10-07T20:58:46.182Z,12.20
2023-10-07T21:01:22.236Z,18.40
2023-10-07T21:03:51.622Z,14.20
2023-10-07T21:06:23.613Z,16.50
2023-10-07T21:08:53.011Z,17.50
2023-10-07T21:11:25.117Z,15.50
2023-10-07T21:13:57.314Z,15.30
2023-10-07T21:16:25.589Z,15.30
2023-10-07T21:18:55.845Z,12.50
2023-10-07T21:21:24.844Z,13.50
2023-10-07T21:23:55.428Z,13.70
2023-10-07T21:26:23.641Z,10.80
2023-10-07T21:28:56.021Z,11.50
2023-10-07T21:31:33.299Z,12.50
2023-10-07T21:34:01.011Z,13.80
2023-10-07T21:36:28.480Z,11.50
2023-10-07T21:38:58.397Z,13.00
2023-10-07T21:41:35.340Z,11.30
2023-10-07T21:44:09.270Z,12.70
2023-10-07T21:46:41.801Z,11.00
2023-10-07T21:49:15.714Z,11.90
2023-10-07T21:51:45.228Z,10.60
2023-10-07T21:54:12.803Z,11.70
2023-10-07T21:56:41.565Z,10.70
2023-10-07T21:59:12.783Z,10.40
2023-10-07T22:01:41.841Z,12.60
2023-10-07T22:04:15.599Z,10.70
2023-10-07T22:06:43.554Z,11.80
2023-10-07T22:09:19.499Z,10.10
2023-10-07T22:11:49.331Z,10.20
2023-10-07T22:14:16.878Z,9.20
2023-10-07T22:16:44.392Z,11.60
2023-10-07T22:19:11.979Z,11.20
2023-10-07T22:21:39.488Z,10.60
2023-10-07T22:24:09.642Z,10.30
2023-10-07T22:26:40.847Z,11.30
2023-10-07T22:29:08.697Z,8.60
2023-10-07T22:31:48.629Z,12.20
2023-10-07T22:34:21.687Z,10.40
2023-10-07T22:36:53.842Z,9.20
2023-10-07T22:39:47.053Z,8.90
2023-10-07T22:42:26.939Z,9.30
2023-10-07T22:44:57.678Z,8.30
2023-10-07T22:47:25.412Z,9.30
2023-10-07T22:49:56.785Z,8.50
2023-10-07T22:52:24.132Z,10.50
2023-10-07T22:55:15.667Z,9.30
2023-10-07T22:57:43.052Z,9.00
2023-10-07T23:00:20.768Z,10.20
2023-10-07T23:02:52.307Z,8.40
2023-10-07T23:05:25.096Z,9.90
2023-10-07T23:07:55.197Z,10.00
2023-10-07T23:10:36.719Z,10.10
2023-10-07T23:13:11.746Z,10.10
2023-10-07T23:15:39.386Z,12.10
2023-10-07T23:18:06.985Z,10.80
2023-10-07T23:20:43.368Z,8.90
2023-10-07T23:23:13.897Z,10.60
2023-10-07T23:25:51.653Z,9.80
2023-10-07T23:28:23.643Z,8.70
2023-10-07T23:31:18.236Z,8.50
2023-10-07T23:33:45.634Z,9.70
2023-10-07T23:36:19.193Z,9.60
2023-10-07T23:38:49.307Z,8.10
2023-10-07T23:41:17.867Z,10.50
2023-10-07T23:43:45.383Z,8.60
2023-10-07T23:46:12.495Z,8.30
2023-10-07T23:48:47.866Z,8.70
2023-10-07T23:51:20.734Z,9.40
2023-10-07T23:53:51.898Z,8.40
2023-10-07T23:56:27.936Z,10.80
2023-10-07T23:58:55.429Z,8.10
